Sitka, AK

2:01 PM AKDT on April 01, 2015 (GMT -0800)
Hoonah | | Change Station
CLOSE
Current Station
Airport
Location: Hoonah,
Elevation: 0 ft
Nearby Weather Stations

Elev 0 ft 58.11 °N, 135.45 °W | Updated 1 day ago

Mostly Cloudy
Mostly Cloudy
44 °F
Feels Like 40 °F
N
9
Wind Variable Wind from South
Gusts mph

Today
High -- | Low -- °F
--% Chance of Precip.
Yesterday
High -- | Low -- °F
Precip. -- in
6:30 AM 7:40 PM
Waxing Gibbous, 94% visible
Pressure 29.64 in
Visibility 7.0 miles
Clouds Mostly Cloudy 400 ft
Mostly Cloudy 2300 ft
Mostly Cloudy 3300 ft
Windchill 40 °F
Dew Point 37 °F
Humidity 76%
Rainfall 0.13 in
Snow Depth Not available.
UV 0 out of 12
Pollen Not available.
Air Quality Not available.
Flu Activity Not available.
METAR PAOH 311419Z AUTO 00000KT 7SM -RA BKN004 BKN023 BKN033 03/03 A2964 RMK AO2 TSNO BKN V SCT P0001 $

More Conditions Fewer Conditions

Pressure 29.64 in
Visibility 7.0 miles
Clouds Mostly Cloudy 400 ft
Mostly Cloudy 2300 ft
Mostly Cloudy 3300 ft
Windchill 40 °F
Dew Point 37 °F
Humidity 76%
Rainfall 0.13 in
Snow Depth Not available.
UV 0 out of 12
Pollen Not available.
Air Quality Not available.
Flu Activity Not available.
METAR PAOH 311419Z AUTO 00000KT 7SM -RA BKN004 BKN023 BKN033 03/03 A2964 RMK AO2 TSNO BKN V SCT P0001 $

More Conditions Fewer Conditions

10-Day Weather Forecast

Almanac

Astronomy

Apr. 01, 2015 Rise Set
Actual Time
Civil Twilight
Nautical Twilight
Astronomical Twilight
Moon
Length of Visible Light
Length of Day
Tomorrow will be .
, % of the Moon is Illuminated

Today's Extremes

State Highs State Lows

Community

WunderPhotos

Upload Photos

1,810,093 photos uploaded!

WunderBlogs® & News

Nearby

Air Quality

  Air Quality AQ Index Pollutant
Not available.

Snow Depth

Station Depth Elevation

Earthquake Activity

City Distance Mag. Time & Date
Minimum magnitude displayed is 2.5.

Coastal Water Temperatures

Place Temperature

Stations

Nearby Weather Stations

Station Location Temp. Windchill Dew Point Humidity Wind Precip. Elev Updated Type